sensor_id;sensor_type;location;lat;lon;timestamp;P1;durP1;ratioP1;P2;durP2;ratioP2
9178;SDS011;4624;48.126;11.546;2022-07-10T00:00:16;1.80;;;1.43;;
9178;SDS011;4624;48.126;11.546;2022-07-10T00:02:46;1.53;;;1.40;;
9178;SDS011;4624;48.126;11.546;2022-07-10T00:05:12;3.23;;;1.77;;
9178;SDS011;4624;48.126;11.546;2022-07-10T00:07:39;2.93;;;1.37;;
9178;SDS011;4624;48.126;11.546;2022-07-10T00:10:06;2.70;;;1.60;;
9178;SDS011;4624;48.126;11.546;2022-07-10T00:12:35;3.27;;;1.60;;
9178;SDS011;4624;48.126;11.546;2022-07-10T00:15:02;3.43;;;1.30;;
9178;SDS011;4624;48.126;11.546;2022-07-10T00:17:29;5.23;;;1.67;;
9178;SDS011;4624;48.126;11.546;2022-07-10T00:19:56;2.53;;;1.17;;
9178;SDS011;4624;48.126;11.546;2022-07-10T00:22:23;1.60;;;1.30;;
9178;SDS011;4624;48.126;11.546;2022-07-10T00:24:50;1.57;;;1.27;;
9178;SDS011;4624;48.126;11.546;2022-07-10T00:27:17;3.30;;;1.53;;
9178;SDS011;4624;48.126;11.546;2022-07-10T00:29:45;1.70;;;1.60;;
9178;SDS011;4624;48.126;11.546;2022-07-10T00:32:12;3.70;;;1.87;;
9178;SDS011;4624;48.126;11.546;2022-07-10T00:34:39;2.37;;;1.80;;
9178;SDS011;4624;48.126;11.546;2022-07-10T00:37:06;3.03;;;2.00;;
9178;SDS011;4624;48.126;11.546;2022-07-10T00:39:32;2.27;;;1.80;;
9178;SDS011;4624;48.126;11.546;2022-07-10T00:42:05;2.27;;;1.90;;
9178;SDS011;4624;48.126;11.546;2022-07-10T00:44:34;2.37;;;1.77;;
9178;SDS011;4624;48.126;11.546;2022-07-10T00:47:02;3.77;;;2.20;;
9178;SDS011;4624;48.126;11.546;2022-07-10T00:49:30;2.53;;;2.33;;
9178;SDS011;4624;48.126;11.546;2022-07-10T00:51:57;2.30;;;1.90;;
9178;SDS011;4624;48.126;11.546;2022-07-10T00:54:25;2.43;;;2.23;;
9178;SDS011;4624;48.126;11.546;2022-07-10T00:56:52;3.53;;;2.03;;
9178;SDS011;4624;48.126;11.546;2022-07-10T00:59:20;3.30;;;2.57;;
9178;SDS011;4624;48.126;11.546;2022-07-10T01:01:48;2.30;;;2.20;;
9178;SDS011;4624;48.126;11.546;2022-07-10T01:04:17;2.90;;;2.33;;
9178;SDS011;4624;48.126;11.546;2022-07-10T01:06:44;2.10;;;2.00;;
9178;SDS011;4624;48.126;11.546;2022-07-10T01:09:11;1.87;;;1.77;;
9178;SDS011;4624;48.126;11.546;2022-07-10T01:11:38;2.17;;;2.03;;
9178;SDS011;4624;48.126;11.546;2022-07-10T01:14:05;2.33;;;2.10;;
9178;SDS011;4624;48.126;11.546;2022-07-10T01:16:33;2.40;;;2.20;;
9178;SDS011;4624;48.126;11.546;2022-07-10T01:19:00;3.43;;;2.00;;
9178;SDS011;4624;48.126;11.546;2022-07-10T01:21:29;3.50;;;2.30;;
9178;SDS011;4624;48.126;11.546;2022-07-10T01:23:57;2.60;;;1.80;;
9178;SDS011;4624;48.126;11.546;2022-07-10T01:26:24;2.10;;;1.97;;
9178;SDS011;4624;48.126;11.546;2022-07-10T01:28:51;2.43;;;2.27;;
9178;SDS011;4624;48.126;11.546;2022-07-10T01:31:19;2.20;;;2.00;;
9178;SDS011;4624;48.126;11.546;2022-07-10T01:33:50;2.23;;;2.03;;
9178;SDS011;4624;48.126;11.546;2022-07-10T01:36:17;2.43;;;2.23;;
9178;SDS011;4624;48.126;11.546;2022-07-10T01:38:45;2.30;;;1.80;;
9178;SDS011;4624;48.126;11.546;2022-07-10T01:41:12;1.97;;;1.87;;
9178;SDS011;4624;48.126;11.546;2022-07-10T01:43:39;1.87;;;1.77;;
9178;SDS011;4624;48.126;11.546;2022-07-10T01:46:07;3.53;;;2.20;;
9178;SDS011;4624;48.126;11.546;2022-07-10T01:48:36;2.37;;;2.03;;
9178;SDS011;4624;48.126;11.546;2022-07-10T01:51:03;2.27;;;2.07;;
9178;SDS011;4624;48.126;11.546;2022-07-10T01:53:31;3.43;;;2.30;;
9178;SDS011;4624;48.126;11.546;2022-07-10T01:55:59;2.30;;;2.20;;
9178;SDS011;4624;48.126;11.546;2022-07-10T01:58:27;2.57;;;2.37;;
9178;SDS011;4624;48.126;11.546;2022-07-10T02:00:54;1.80;;;1.70;;
9178;SDS011;4624;48.126;11.546;2022-07-10T02:03:21;1.77;;;1.67;;
9178;SDS011;4624;48.126;11.546;2022-07-10T02:06:05;2.07;;;1.97;;
9178;SDS011;4624;48.126;11.546;2022-07-10T02:08:32;1.87;;;1.77;;
9178;SDS011;4624;48.126;11.546;2022-07-10T02:11:00;2.20;;;2.10;;
9178;SDS011;4624;48.126;11.546;2022-07-10T02:13:27;2.33;;;2.13;;
9178;SDS011;4624;48.126;11.546;2022-07-10T02:15:54;2.30;;;2.10;;
9178;SDS011;4624;48.126;11.546;2022-07-10T02:18:21;2.00;;;1.90;;
9178;SDS011;4624;48.126;11.546;2022-07-10T02:20:48;2.40;;;1.97;;
9178;SDS011;4624;48.126;11.546;2022-07-10T02:23:16;1.90;;;1.80;;
9178;SDS011;4624;48.126;11.546;2022-07-10T02:25:44;2.30;;;2.03;;
9178;SDS011;4624;48.126;11.546;2022-07-10T02:28:12;2.33;;;2.03;;
9178;SDS011;4624;48.126;11.546;2022-07-10T02:30:38;2.27;;;2.13;;
9178;SDS011;4624;48.126;11.546;2022-07-10T02:33:05;2.17;;;2.00;;
9178;SDS011;4624;48.126;11.546;2022-07-10T02:35:32;2.40;;;1.97;;
9178;SDS011;4624;48.126;11.546;2022-07-10T02:37:59;2.13;;;1.97;;
9178;SDS011;4624;48.126;11.546;2022-07-10T02:40:26;2.60;;;2.40;;
9178;SDS011;4624;48.126;11.546;2022-07-10T02:42:52;4.80;;;2.50;;
9178;SDS011;4624;48.126;11.546;2022-07-10T02:45:20;1.90;;;1.80;;
9178;SDS011;4624;48.126;11.546;2022-07-10T02:47:47;2.30;;;2.00;;
9178;SDS011;4624;48.126;11.546;2022-07-10T02:50:14;1.97;;;1.70;;
9178;SDS011;4624;48.126;11.546;2022-07-10T02:52:41;2.30;;;2.10;;
9178;SDS011;4624;48.126;11.546;2022-07-10T02:55:08;2.37;;;2.17;;
9178;SDS011;4624;48.126;11.546;2022-07-10T02:57:35;2.23;;;2.03;;
9178;SDS011;4624;48.126;11.546;2022-07-10T03:00:02;2.07;;;1.97;;
9178;SDS011;4624;48.126;11.546;2022-07-10T03:02:30;2.87;;;2.33;;
9178;SDS011;4624;48.126;11.546;2022-07-10T03:04:57;2.57;;;2.10;;
9178;SDS011;4624;48.126;11.546;2022-07-10T03:07:24;2.63;;;2.37;;
9178;SDS011;4624;48.126;11.546;2022-07-10T03:09:51;2.30;;;2.20;;
9178;SDS011;4624;48.126;11.546;2022-07-10T03:12:18;2.33;;;2.13;;
9178;SDS011;4624;48.126;11.546;2022-07-10T03:14:45;2.47;;;2.30;;
9178;SDS011;4624;48.126;11.546;2022-07-10T03:17:12;2.77;;;2.17;;
9178;SDS011;4624;48.126;11.546;2022-07-10T03:19:40;3.23;;;2.93;;
9178;SDS011;4624;48.126;11.546;2022-07-10T03:22:07;3.73;;;2.33;;
9178;SDS011;4624;48.126;11.546;2022-07-10T03:24:33;2.77;;;2.57;;
9178;SDS011;4624;48.126;11.546;2022-07-10T03:27:00;3.33;;;2.63;;
9178;SDS011;4624;48.126;11.546;2022-07-10T03:29:27;3.47;;;2.70;;
9178;SDS011;4624;48.126;11.546;2022-07-10T03:31:54;2.73;;;2.53;;
9178;SDS011;4624;48.126;11.546;2022-07-10T03:34:20;2.20;;;2.10;;
9178;SDS011;4624;48.126;11.546;2022-07-10T03:36:49;3.27;;;2.47;;
9178;SDS011;4624;48.126;11.546;2022-07-10T03:39:16;2.70;;;2.50;;
9178;SDS011;4624;48.126;11.546;2022-07-10T03:41:43;3.20;;;3.00;;
9178;SDS011;4624;48.126;11.546;2022-07-10T03:44:10;2.63;;;2.40;;
9178;SDS011;4624;48.126;11.546;2022-07-10T03:46:36;2.77;;;2.57;;
9178;SDS011;4624;48.126;11.546;2022-07-10T03:49:03;2.90;;;2.70;;
9178;SDS011;4624;48.126;11.546;2022-07-10T03:51:30;3.13;;;2.83;;
9178;SDS011;4624;48.126;11.546;2022-07-10T03:53:58;2.33;;;2.20;;
9178;SDS011;4624;48.126;11.546;2022-07-10T03:56:25;3.83;;;2.70;;
9178;SDS011;4624;48.126;11.546;2022-07-10T03:59:09;4.63;;;2.60;;
9178;SDS011;4624;48.126;11.546;2022-07-10T04:01:36;2.93;;;2.77;;
9178;SDS011;4624;48.126;11.546;2022-07-10T04:04:03;3.17;;;2.97;;
9178;SDS011;4624;48.126;11.546;2022-07-10T04:06:30;2.70;;;2.50;;
9178;SDS011;4624;48.126;11.546;2022-07-10T04:08:57;4.40;;;2.67;;
9178;SDS011;4624;48.126;11.546;2022-07-10T04:11:25;2.83;;;2.57;;
9178;SDS011;4624;48.126;11.546;2022-07-10T04:13:51;2.87;;;2.60;;
9178;SDS011;4624;48.126;11.546;2022-07-10T04:16:18;2.93;;;2.73;;
9178;SDS011;4624;48.126;11.546;2022-07-10T04:18:45;3.77;;;2.50;;
9178;SDS011;4624;48.126;11.546;2022-07-10T04:21:12;2.83;;;2.43;;
9178;SDS011;4624;48.126;11.546;2022-07-10T04:23:39;2.50;;;2.30;;
9178;SDS011;4624;48.126;11.546;2022-07-10T04:26:07;2.80;;;2.60;;
9178;SDS011;4624;48.126;11.546;2022-07-10T04:28:34;2.40;;;2.23;;
9178;SDS011;4624;48.126;11.546;2022-07-10T04:31:00;2.47;;;2.37;;
9178;SDS011;4624;48.126;11.546;2022-07-10T04:33:27;2.30;;;2.20;;
9178;SDS011;4624;48.126;11.546;2022-07-10T04:35:54;3.33;;;2.60;;
9178;SDS011;4624;48.126;11.546;2022-07-10T04:38:21;2.73;;;2.40;;
9178;SDS011;4624;48.126;11.546;2022-07-10T04:40:47;2.63;;;2.43;;
9178;SDS011;4624;48.126;11.546;2022-07-10T04:43:16;2.60;;;2.40;;
9178;SDS011;4624;48.126;11.546;2022-07-10T04:45:42;2.83;;;2.63;;
9178;SDS011;4624;48.126;11.546;2022-07-10T04:48:10;2.20;;;2.10;;
9178;SDS011;4624;48.126;11.546;2022-07-10T04:50:37;2.43;;;2.23;;
9178;SDS011;4624;48.126;11.546;2022-07-10T04:53:03;2.50;;;2.30;;
9178;SDS011;4624;48.126;11.546;2022-07-10T04:55:30;2.57;;;2.37;;
9178;SDS011;4624;48.126;11.546;2022-07-10T04:57:57;2.63;;;2.43;;
9178;SDS011;4624;48.126;11.546;2022-07-10T05:00:25;2.97;;;2.40;;
9178;SDS011;4624;48.126;11.546;2022-07-10T05:02:52;2.73;;;2.53;;
9178;SDS011;4624;48.126;11.546;2022-07-10T05:05:19;3.03;;;2.30;;
9178;SDS011;4624;48.126;11.546;2022-07-10T05:07:46;2.80;;;2.60;;
9178;SDS011;4624;48.126;11.546;2022-07-10T05:10:12;2.90;;;2.70;;
9178;SDS011;4624;48.126;11.546;2022-07-10T05:12:39;3.77;;;2.93;;
9178;SDS011;4624;48.126;11.546;2022-07-10T05:15:06;3.40;;;3.10;;
9178;SDS011;4624;48.126;11.546;2022-07-10T05:17:35;2.80;;;2.60;;
9178;SDS011;4624;48.126;11.546;2022-07-10T05:20:03;2.73;;;2.53;;
9178;SDS011;4624;48.126;11.546;2022-07-10T05:22:30;3.20;;;3.00;;
9178;SDS011;4624;48.126;11.546;2022-07-10T05:24:57;3.00;;;2.70;;
9178;SDS011;4624;48.126;11.546;2022-07-10T05:27:24;2.67;;;2.47;;
9178;SDS011;4624;48.126;11.546;2022-07-10T05:29:51;2.67;;;2.50;;
9178;SDS011;4624;48.126;11.546;2022-07-10T05:32:18;3.63;;;2.70;;
9178;SDS011;4624;48.126;11.546;2022-07-10T05:34:47;4.77;;;3.40;;
9178;SDS011;4624;48.126;11.546;2022-07-10T05:37:14;3.37;;;3.07;;
9178;SDS011;4624;48.126;11.546;2022-07-10T05:39:41;3.33;;;3.13;;
9178;SDS011;4624;48.126;11.546;2022-07-10T05:42:08;3.93;;;2.73;;
9178;SDS011;4624;48.126;11.546;2022-07-10T05:44:35;3.57;;;3.37;;
9178;SDS011;4624;48.126;11.546;2022-07-10T05:47:02;4.43;;;3.70;;
9178;SDS011;4624;48.126;11.546;2022-07-10T05:49:30;5.73;;;3.97;;
9178;SDS011;4624;48.126;11.546;2022-07-10T05:51:58;4.13;;;3.83;;
9178;SDS011;4624;48.126;11.546;2022-07-10T05:54:25;3.90;;;3.70;;
9178;SDS011;4624;48.126;11.546;2022-07-10T05:56:52;3.00;;;2.80;;
9178;SDS011;4624;48.126;11.546;2022-07-10T05:59:19;3.60;;;3.30;;
9178;SDS011;4624;48.126;11.546;2022-07-10T06:01:47;3.70;;;3.43;;
9178;SDS011;4624;48.126;11.546;2022-07-10T06:04:14;3.90;;;3.70;;
9178;SDS011;4624;48.126;11.546;2022-07-10T06:06:41;4.00;;;3.60;;
9178;SDS011;4624;48.126;11.546;2022-07-10T06:09:09;4.33;;;3.33;;
9178;SDS011;4624;48.126;11.546;2022-07-10T06:11:35;3.60;;;3.40;;
9178;SDS011;4624;48.126;11.546;2022-07-10T06:14:02;3.83;;;3.53;;
9178;SDS011;4624;48.126;11.546;2022-07-10T06:16:29;4.40;;;3.97;;
9178;SDS011;4624;48.126;11.546;2022-07-10T06:18:56;3.93;;;3.50;;
9178;SDS011;4624;48.126;11.546;2022-07-10T06:21:23;5.40;;;3.87;;
9178;SDS011;4624;48.126;11.546;2022-07-10T06:23:49;3.97;;;3.67;;
9178;SDS011;4624;48.126;11.546;2022-07-10T06:26:18;5.63;;;3.83;;
9178;SDS011;4624;48.126;11.546;2022-07-10T06:28:44;4.10;;;3.80;;
9178;SDS011;4624;48.126;11.546;2022-07-10T06:31:11;7.50;;;3.27;;
9178;SDS011;4624;48.126;11.546;2022-07-10T06:33:38;4.00;;;3.63;;
9178;SDS011;4624;48.126;11.546;2022-07-10T06:36:05;4.03;;;3.73;;
9178;SDS011;4624;48.126;11.546;2022-07-10T06:38:32;4.40;;;4.00;;
9178;SDS011;4624;48.126;11.546;2022-07-10T06:41:00;4.30;;;4.00;;
9178;SDS011;4624;48.126;11.546;2022-07-10T06:43:28;4.50;;;3.97;;
9178;SDS011;4624;48.126;11.546;2022-07-10T06:45:55;3.60;;;3.40;;
9178;SDS011;4624;48.126;11.546;2022-07-10T06:48:22;4.00;;;3.70;;
9178;SDS011;4624;48.126;11.546;2022-07-10T06:50:49;3.90;;;3.63;;
9178;SDS011;4624;48.126;11.546;2022-07-10T06:53:16;4.17;;;3.80;;
9178;SDS011;4624;48.126;11.546;2022-07-10T06:55:48;3.87;;;3.57;;
9178;SDS011;4624;48.126;11.546;2022-07-10T06:58:16;4.20;;;3.90;;
9178;SDS011;4624;48.126;11.546;2022-07-10T07:00:44;4.13;;;3.77;;
9178;SDS011;4624;48.126;11.546;2022-07-10T07:03:11;4.10;;;3.80;;
9178;SDS011;4624;48.126;11.546;2022-07-10T07:05:38;6.60;;;4.30;;
9178;SDS011;4624;48.126;11.546;2022-07-10T07:08:04;3.93;;;3.63;;
9178;SDS011;4624;48.126;11.546;2022-07-10T07:10:31;3.93;;;3.60;;
9178;SDS011;4624;48.126;11.546;2022-07-10T07:12:58;4.13;;;3.83;;
9178;SDS011;4624;48.126;11.546;2022-07-10T07:15:27;4.03;;;3.33;;
9178;SDS011;4624;48.126;11.546;2022-07-10T07:17:56;3.87;;;3.57;;
9178;SDS011;4624;48.126;11.546;2022-07-10T07:20:32;3.50;;;3.27;;
9178;SDS011;4624;48.126;11.546;2022-07-10T07:23:17;3.33;;;3.03;;
9178;SDS011;4624;48.126;11.546;2022-07-10T07:25:44;3.00;;;2.80;;
9178;SDS011;4624;48.126;11.546;2022-07-10T07:28:12;4.53;;;4.13;;
9178;SDS011;4624;48.126;11.546;2022-07-10T07:30:41;3.63;;;3.43;;
9178;SDS011;4624;48.126;11.546;2022-07-10T07:33:10;3.83;;;3.37;;
9178;SDS011;4624;48.126;11.546;2022-07-10T07:35:37;3.70;;;3.40;;
9178;SDS011;4624;48.126;11.546;2022-07-10T07:38:04;3.33;;;3.10;;
9178;SDS011;4624;48.126;11.546;2022-07-10T07:40:32;3.73;;;3.17;;
9178;SDS011;4624;48.126;11.546;2022-07-10T07:42:59;3.60;;;3.30;;
9178;SDS011;4624;48.126;11.546;2022-07-10T07:45:26;5.10;;;2.93;;
9178;SDS011;4624;48.126;11.546;2022-07-10T07:47:54;4.97;;;3.70;;
9178;SDS011;4624;48.126;11.546;2022-07-10T07:50:24;2.93;;;2.73;;
9178;SDS011;4624;48.126;11.546;2022-07-10T07:52:52;3.40;;;3.10;;
9178;SDS011;4624;48.126;11.546;2022-07-10T07:55:19;6.33;;;2.90;;
9178;SDS011;4624;48.126;11.546;2022-07-10T07:57:48;3.07;;;2.77;;
9178;SDS011;4624;48.126;11.546;2022-07-10T08:00:18;2.87;;;2.63;;
9178;SDS011;4624;48.126;11.546;2022-07-10T08:02:47;3.17;;;2.83;;
9178;SDS011;4624;48.126;11.546;2022-07-10T08:05:14;2.30;;;2.17;;
9178;SDS011;4624;48.126;11.546;2022-07-10T08:07:44;5.53;;;2.70;;
9178;SDS011;4624;48.126;11.546;2022-07-10T08:10:13;2.70;;;2.50;;
9178;SDS011;4624;48.126;11.546;2022-07-10T08:12:41;2.13;;;1.93;;
9178;SDS011;4624;48.126;11.546;2022-07-10T08:15:10;2.80;;;2.00;;
9178;SDS011;4624;48.126;11.546;2022-07-10T08:17:38;3.03;;;2.20;;
9178;SDS011;4624;48.126;11.546;2022-07-10T08:20:06;4.70;;;2.20;;
9178;SDS011;4624;48.126;11.546;2022-07-10T08:22:34;2.53;;;1.50;;
9178;SDS011;4624;48.126;11.546;2022-07-10T08:25:03;1.93;;;1.70;;
9178;SDS011;4624;48.126;11.546;2022-07-10T08:27:30;1.77;;;1.67;;
9178;SDS011;4624;48.126;11.546;2022-07-10T08:29:57;1.63;;;1.53;;
9178;SDS011;4624;48.126;11.546;2022-07-10T08:32:24;1.98;;;1.58;;
9178;SDS011;4624;48.126;11.546;2022-07-10T08:34:52;2.45;;;1.33;;
9178;SDS011;4624;48.126;11.546;2022-07-10T08:37:19;1.60;;;1.10;;
9178;SDS011;4624;48.126;11.546;2022-07-10T08:39:46;1.73;;;1.17;;
9178;SDS011;4624;48.126;11.546;2022-07-10T08:42:14;1.42;;;1.30;;
9178;SDS011;4624;48.126;11.546;2022-07-10T08:44:42;2.83;;;1.25;;
9178;SDS011;4624;48.126;11.546;2022-07-10T08:47:09;2.37;;;1.53;;
9178;SDS011;4624;48.126;11.546;2022-07-10T08:49:37;1.77;;;1.30;;
9178;SDS011;4624;48.126;11.546;2022-07-10T08:52:12;4.50;;;1.40;;
9178;SDS011;4624;48.126;11.546;2022-07-10T08:54:51;79.57;;;7.95;;
9178;SDS011;4624;48.126;11.546;2022-07-10T08:57:20;1.20;;;1.05;;
9178;SDS011;4624;48.126;11.546;2022-07-10T08:59:48;5.10;;;1.17;;
9178;SDS011;4624;48.126;11.546;2022-07-10T09:02:29;2.10;;;1.00;;
9178;SDS011;4624;48.126;11.546;2022-07-10T09:04:56;3.00;;;1.10;;
9178;SDS011;4624;48.126;11.546;2022-07-10T09:07:24;2.75;;;0.90;;
9178;SDS011;4624;48.126;11.546;2022-07-10T09:10:04;2.65;;;1.20;;
9178;SDS011;4624;48.126;11.546;2022-07-10T09:12:48;1.17;;;0.95;;
9178;SDS011;4624;48.126;11.546;2022-07-10T09:15:17;3.72;;;1.10;;
9178;SDS011;4624;48.126;11.546;2022-07-10T09:17:49;4.40;;;0.93;;
9178;SDS011;4624;48.126;11.546;2022-07-10T09:20:24;3.90;;;0.75;;
9178;SDS011;4624;48.126;11.546;2022-07-10T09:22:52;2.35;;;0.80;;
9178;SDS011;4624;48.126;11.546;2022-07-10T09:25:19;1.27;;;1.05;;
9178;SDS011;4624;48.126;11.546;2022-07-10T09:27:53;2.42;;;0.85;;
9178;SDS011;4624;48.126;11.546;2022-07-10T09:30:33;5.15;;;0.80;;
9178;SDS011;4624;48.126;11.546;2022-07-10T09:33:18;1.13;;;0.63;;
9178;SDS011;4624;48.126;11.546;2022-07-10T09:35:54;1.10;;;0.73;;
9178;SDS011;4624;48.126;11.546;2022-07-10T09:41:16;1.33;;;0.90;;
9178;SDS011;4624;48.126;11.546;2022-07-10T09:43:46;1.35;;;0.63;;
9178;SDS011;4624;48.126;11.546;2022-07-10T09:46:14;1.10;;;1.00;;
9178;SDS011;4624;48.126;11.546;2022-07-10T09:48:41;1.95;;;0.80;;
9178;SDS011;4624;48.126;11.546;2022-07-10T09:51:08;1.17;;;0.70;;
9178;SDS011;4624;48.126;11.546;2022-07-10T09:53:37;1.77;;;0.90;;
9178;SDS011;4624;48.126;11.546;2022-07-10T09:56:06;1.38;;;0.70;;
9178;SDS011;4624;48.126;11.546;2022-07-10T09:58:34;1.58;;;0.77;;
9178;SDS011;4624;48.126;11.546;2022-07-10T10:01:03;1.73;;;0.80;;
9178;SDS011;4624;48.126;11.546;2022-07-10T10:03:32;1.23;;;0.80;;
9178;SDS011;4624;48.126;11.546;2022-07-10T10:06:04;2.38;;;0.80;;
9178;SDS011;4624;48.126;11.546;2022-07-10T10:08:40;1.20;;;0.80;;
9178;SDS011;4624;48.126;11.546;2022-07-10T10:11:14;0.98;;;0.70;;
9178;SDS011;4624;48.126;11.546;2022-07-10T10:13:44;1.35;;;0.98;;
9178;SDS011;4624;48.126;11.546;2022-07-10T10:16:12;1.00;;;0.90;;
9178;SDS011;4624;48.126;11.546;2022-07-10T10:18:40;1.35;;;0.70;;
9178;SDS011;4624;48.126;11.546;2022-07-10T10:21:23;2.15;;;0.70;;
9178;SDS011;4624;48.126;11.546;2022-07-10T10:23:51;0.98;;;0.70;;
9178;SDS011;4624;48.126;11.546;2022-07-10T10:26:19;0.88;;;0.70;;
9178;SDS011;4624;48.126;11.546;2022-07-10T10:28:48;1.33;;;0.60;;
9178;SDS011;4624;48.126;11.546;2022-07-10T10:31:17;0.47;;;0.47;;
9178;SDS011;4624;48.126;11.546;2022-07-10T10:33:45;1.65;;;0.50;;
9178;SDS011;4624;48.126;11.546;2022-07-10T10:36:14;1.30;;;0.70;;
9178;SDS011;4624;48.126;11.546;2022-07-10T10:39:08;1.98;;;0.82;;
9178;SDS011;4624;48.126;11.546;2022-07-10T10:41:38;1.35;;;0.80;;
9178;SDS011;4624;48.126;11.546;2022-07-10T10:44:19;2.38;;;0.90;;
9178;SDS011;4624;48.126;11.546;2022-07-10T10:47:02;1.55;;;0.75;;
9178;SDS011;4624;48.126;11.546;2022-07-10T10:52:24;1.30;;;0.65;;
9178;SDS011;4624;48.126;11.546;2022-07-10T10:55:01;1.27;;;0.70;;
9178;SDS011;4624;48.126;11.546;2022-07-10T10:57:36;1.25;;;0.80;;
9178;SDS011;4624;48.126;11.546;2022-07-10T11:00:13;3.28;;;0.50;;
9178;SDS011;4624;48.126;11.546;2022-07-10T11:03:15;3.60;;;1.00;;
9178;SDS011;4624;48.126;11.546;2022-07-10T11:05:47;0.70;;;0.68;;
9178;SDS011;4624;48.126;11.546;2022-07-10T11:14:08;0.70;;;0.52;;
9178;SDS011;4624;48.126;11.546;2022-07-10T11:16:37;1.05;;;0.75;;
9178;SDS011;4624;48.126;11.546;2022-07-10T11:19:13;0.82;;;0.70;;
9178;SDS011;4624;48.126;11.546;2022-07-10T11:21:47;0.90;;;0.85;;
9178;SDS011;4624;48.126;11.546;2022-07-10T11:24:24;1.85;;;0.80;;
9178;SDS011;4624;48.126;11.546;2022-07-10T11:27:08;2.15;;;0.90;;
9178;SDS011;4624;48.126;11.546;2022-07-10T11:29:41;2.78;;;0.98;;
9178;SDS011;4624;48.126;11.546;2022-07-10T11:32:14;2.22;;;0.70;;
9178;SDS011;4624;48.126;11.546;2022-07-10T11:34:44;3.58;;;0.90;;
9178;SDS011;4624;48.126;11.546;2022-07-10T11:37:14;2.00;;;0.80;;
9178;SDS011;4624;48.126;11.546;2022-07-10T11:39:41;1.20;;;0.60;;
9178;SDS011;4624;48.126;11.546;2022-07-10T11:42:08;0.60;;;0.50;;
9178;SDS011;4624;48.126;11.546;2022-07-10T11:44:35;0.90;;;0.55;;
9178;SDS011;4624;48.126;11.546;2022-07-10T11:47:03;2.03;;;0.90;;
9178;SDS011;4624;48.126;11.546;2022-07-10T11:49:32;0.77;;;0.60;;
9178;SDS011;4624;48.126;11.546;2022-07-10T11:52:02;1.33;;;0.68;;
9178;SDS011;4624;48.126;11.546;2022-07-10T11:54:30;0.82;;;0.60;;
9178;SDS011;4624;48.126;11.546;2022-07-10T11:57:03;1.38;;;0.55;;
9178;SDS011;4624;48.126;11.546;2022-07-10T11:59:33;2.10;;;0.75;;
9178;SDS011;4624;48.126;11.546;2022-07-10T12:02:00;0.98;;;0.43;;
9178;SDS011;4624;48.126;11.546;2022-07-10T12:04:29;1.35;;;0.60;;
9178;SDS011;4624;48.126;11.546;2022-07-10T12:06:56;1.38;;;0.60;;
9178;SDS011;4624;48.126;11.546;2022-07-10T12:09:25;1.30;;;0.52;;
9178;SDS011;4624;48.126;11.546;2022-07-10T12:11:59;1.10;;;0.60;;
9178;SDS011;4624;48.126;11.546;2022-07-10T12:14:26;3.42;;;0.60;;
9178;SDS011;4624;48.126;11.546;2022-07-10T12:16:54;1.48;;;0.70;;
9178;SDS011;4624;48.126;11.546;2022-07-10T12:19:22;0.60;;;0.60;;
9178;SDS011;4624;48.126;11.546;2022-07-10T12:21:50;1.42;;;0.47;;
9178;SDS011;4624;48.126;11.546;2022-07-10T12:24:18;1.35;;;0.60;;
9178;SDS011;4624;48.126;11.546;2022-07-10T12:26:47;1.30;;;0.70;;
9178;SDS011;4624;48.126;11.546;2022-07-10T12:29:18;0.73;;;0.60;;
9178;SDS011;4624;48.126;11.546;2022-07-10T12:31:47;1.75;;;0.70;;
9178;SDS011;4624;48.126;11.546;2022-07-10T12:34:14;1.45;;;0.82;;
9178;SDS011;4624;48.126;11.546;2022-07-10T12:36:43;1.15;;;1.00;;
9178;SDS011;4624;48.126;11.546;2022-07-10T12:39:11;2.58;;;0.60;;
9178;SDS011;4624;48.126;11.546;2022-07-10T12:41:56;2.53;;;0.60;;
9178;SDS011;4624;48.126;11.546;2022-07-10T12:44:31;2.25;;;0.75;;
9178;SDS011;4624;48.126;11.546;2022-07-10T12:47:03;1.85;;;0.60;;
9178;SDS011;4624;48.126;11.546;2022-07-10T12:49:47;4.90;;;0.70;;
9178;SDS011;4624;48.126;11.546;2022-07-10T12:52:24;2.70;;;0.57;;
9178;SDS011;4624;48.126;11.546;2022-07-10T12:55:10;2.30;;;0.60;;
9178;SDS011;4624;48.126;11.546;2022-07-10T12:57:48;1.25;;;0.63;;
9178;SDS011;4624;48.126;11.546;2022-07-10T13:00:16;2.72;;;0.60;;
9178;SDS011;4624;48.126;11.546;2022-07-10T13:02:45;1.45;;;0.63;;
9178;SDS011;4624;48.126;11.546;2022-07-10T13:05:24;2.28;;;1.52;;
9178;SDS011;4624;48.126;11.546;2022-07-10T13:08:03;2.38;;;0.60;;
9178;SDS011;4624;48.126;11.546;2022-07-10T13:10:36;0.93;;;0.50;;
9178;SDS011;4624;48.126;11.546;2022-07-10T13:13:05;2.50;;;0.70;;
9178;SDS011;4624;48.126;11.546;2022-07-10T13:15:32;1.85;;;0.70;;
9178;SDS011;4624;48.126;11.546;2022-07-10T13:18:04;3.33;;;0.60;;
9178;SDS011;4624;48.126;11.546;2022-07-10T13:20:31;0.85;;;0.50;;
9178;SDS011;4624;48.126;11.546;2022-07-10T13:22:58;0.98;;;0.50;;
9178;SDS011;4624;48.126;11.546;2022-07-10T13:25:25;3.05;;;0.50;;
9178;SDS011;4624;48.126;11.546;2022-07-10T13:27:52;2.20;;;0.77;;
9178;SDS011;4624;48.126;11.546;2022-07-10T13:30:21;1.10;;;0.65;;
9178;SDS011;4624;48.126;11.546;2022-07-10T13:32:47;0.80;;;0.50;;
9178;SDS011;4624;48.126;11.546;2022-07-10T13:35:14;0.70;;;0.50;;
9178;SDS011;4624;48.126;11.546;2022-07-10T13:37:41;1.38;;;0.70;;
9178;SDS011;4624;48.126;11.546;2022-07-10T13:40:08;1.65;;;0.68;;
9178;SDS011;4624;48.126;11.546;2022-07-10T13:42:36;1.38;;;0.60;;
9178;SDS011;4624;48.126;11.546;2022-07-10T13:45:03;1.45;;;0.40;;
9178;SDS011;4624;48.126;11.546;2022-07-10T13:47:32;1.65;;;0.40;;
9178;SDS011;4624;48.126;11.546;2022-07-10T13:49:59;2.77;;;0.80;;
9178;SDS011;4624;48.126;11.546;2022-07-10T13:52:26;1.77;;;0.50;;
9178;SDS011;4624;48.126;11.546;2022-07-10T13:54:53;1.73;;;0.50;;
9178;SDS011;4624;48.126;11.546;2022-07-10T13:57:19;1.02;;;0.40;;
9178;SDS011;4624;48.126;11.546;2022-07-10T13:59:46;1.13;;;0.43;;
9178;SDS011;4624;48.126;11.546;2022-07-10T14:02:13;1.33;;;0.43;;
9178;SDS011;4624;48.126;11.546;2022-07-10T14:04:41;0.57;;;0.40;;
9178;SDS011;4624;48.126;11.546;2022-07-10T14:07:08;1.33;;;0.67;;
9178;SDS011;4624;48.126;11.546;2022-07-10T14:09:35;1.07;;;0.60;;
9178;SDS011;4624;48.126;11.546;2022-07-10T14:12:02;2.63;;;0.33;;
9178;SDS011;4624;48.126;11.546;2022-07-10T14:14:29;1.20;;;0.60;;
9178;SDS011;4624;48.126;11.546;2022-07-10T14:16:56;3.13;;;0.60;;
9178;SDS011;4624;48.126;11.546;2022-07-10T14:19:22;1.80;;;0.50;;
9178;SDS011;4624;48.126;11.546;2022-07-10T14:21:51;3.00;;;0.50;;
9178;SDS011;4624;48.126;11.546;2022-07-10T14:24:17;0.40;;;0.40;;
9178;SDS011;4624;48.126;11.546;2022-07-10T14:26:44;1.00;;;0.60;;
9178;SDS011;4624;48.126;11.546;2022-07-10T14:29:12;1.90;;;0.57;;
9178;SDS011;4624;48.126;11.546;2022-07-10T14:31:39;0.80;;;0.30;;
9178;SDS011;4624;48.126;11.546;2022-07-10T14:34:06;1.20;;;0.63;;
9178;SDS011;4624;48.126;11.546;2022-07-10T14:36:32;1.13;;;0.53;;
9178;SDS011;4624;48.126;11.546;2022-07-10T14:39:00;1.17;;;0.47;;
9178;SDS011;4624;48.126;11.546;2022-07-10T14:41:27;2.23;;;0.50;;
9178;SDS011;4624;48.126;11.546;2022-07-10T14:43:54;0.30;;;0.30;;
9178;SDS011;4624;48.126;11.546;2022-07-10T14:46:21;0.57;;;0.40;;
9178;SDS011;4624;48.126;11.546;2022-07-10T14:48:48;0.60;;;0.30;;
9178;SDS011;4624;48.126;11.546;2022-07-10T14:51:16;0.63;;;0.50;;
9178;SDS011;4624;48.126;11.546;2022-07-10T14:53:43;0.70;;;0.57;;
9178;SDS011;4624;48.126;11.546;2022-07-10T14:56:12;0.73;;;0.63;;
9178;SDS011;4624;48.126;11.546;2022-07-10T14:58:41;1.80;;;0.30;;
9178;SDS011;4624;48.126;11.546;2022-07-10T15:01:08;1.03;;;0.40;;
9178;SDS011;4624;48.126;11.546;2022-07-10T15:03:35;0.80;;;0.47;;
9178;SDS011;4624;48.126;11.546;2022-07-10T15:06:02;1.57;;;0.70;;
9178;SDS011;4624;48.126;11.546;2022-07-10T15:08:29;0.70;;;0.40;;
9178;SDS011;4624;48.126;11.546;2022-07-10T15:10:56;1.67;;;0.30;;
9178;SDS011;4624;48.126;11.546;2022-07-10T15:13:25;1.00;;;0.50;;
9178;SDS011;4624;48.126;11.546;2022-07-10T15:15:52;1.33;;;0.40;;
9178;SDS011;4624;48.126;11.546;2022-07-10T15:18:19;1.47;;;0.53;;
9178;SDS011;4624;48.126;11.546;2022-07-10T15:20:47;1.37;;;0.57;;